createdAt,value
2019-05-02T00:04:29.156Z,6.00
2019-05-02T00:09:23.134Z,6.03
2019-05-02T00:14:16.458Z,7.93
2019-05-02T00:19:14.053Z,7.10
2019-05-02T00:24:04.226Z,8.10
2019-05-02T00:28:57.166Z,7.63
2019-05-02T00:33:50.633Z,7.03
2019-05-02T00:38:44.035Z,9.63
2019-05-02T00:43:37.699Z,11.33
2019-05-02T00:48:47.435Z,7.30
2019-05-02T00:53:44.425Z,7.00
2019-05-02T00:58:35.024Z,9.20
2019-05-02T01:03:31.835Z,9.97
2019-05-02T01:08:22.423Z,8.53
2019-05-02T01:13:19.154Z,9.80
2019-05-02T01:18:09.465Z,8.83
2019-05-02T01:23:03.197Z,9.00
2019-05-02T01:28:17.738Z,8.10
2019-05-02T01:33:18.316Z,9.70
2019-05-02T01:38:26.467Z,7.47
2019-05-02T01:43:24.117Z,8.33
2019-05-02T01:48:14.358Z,9.20
2019-05-02T01:53:07.992Z,10.60
2019-05-02T01:58:01.361Z,12.33
2019-05-02T02:02:55.062Z,10.07
2019-05-02T02:07:50.885Z,10.27
2019-05-02T02:13:02.221Z,9.33
2019-05-02T02:17:35.311Z,11.97
2019-05-02T02:22:39.257Z,12.47
2019-05-02T02:27:30.852Z,10.10
2019-05-02T02:32:26.787Z,14.50
2019-05-02T02:37:17.632Z,12.53
2019-05-02T02:42:11.253Z,12.50
2019-05-02T02:47:12.263Z,9.70
2019-05-02T02:52:04.852Z,13.80
2019-05-02T02:56:52.608Z,12.63
2019-05-02T03:01:46.048Z,13.30
2019-05-02T03:06:45.175Z,13.33
2019-05-02T03:11:38.609Z,13.80
2019-05-02T03:16:32.341Z,12.13
2019-05-02T03:21:26.023Z,12.80
2019-05-02T03:26:19.705Z,14.63
2019-05-02T03:31:24.386Z,13.90
2019-05-02T03:36:25.912Z,12.33
2019-05-02T03:40:59.978Z,13.67
2019-05-02T03:45:53.349Z,13.97
2019-05-02T03:50:46.677Z,14.17
2019-05-02T03:55:40.307Z,12.57
2019-05-02T04:00:33.974Z,14.87
2019-05-02T04:05:27.349Z,14.30
2019-05-02T04:10:46.021Z,15.37
2019-05-02T04:15:40.089Z,17.47
2019-05-02T04:20:33.907Z,11.90
2019-05-02T04:25:33.343Z,12.87
2019-05-02T04:30:20.940Z,12.50
2019-05-02T04:35:14.278Z,12.60
2019-05-02T04:40:11.850Z,13.20
2019-05-02T04:45:21.165Z,13.20
2019-05-02T04:49:54.467Z,13.07
2019-05-02T04:54:48.796Z,14.77
2019-05-02T04:59:41.416Z,15.13
2019-05-02T05:04:42.026Z,15.07
2019-05-02T05:09:28.387Z,14.43
2019-05-02T05:14:21.730Z,19.03
2019-05-02T05:19:15.358Z,14.70
2019-05-02T05:24:25.035Z,13.70
2019-05-02T05:29:19.263Z,15.57
2019-05-02T05:34:10.778Z,15.10
2019-05-02T05:39:08.615Z,20.90
2019-05-02T05:43:58.008Z,16.80
2019-05-02T05:48:51.319Z,18.80
2019-05-02T05:53:44.662Z,19.63
2019-05-02T05:58:39.805Z,16.90
2019-05-02T06:03:33.979Z,17.03
2019-05-02T06:08:24.823Z,16.27
2019-05-02T06:13:18.525Z,18.67
2019-05-02T06:18:11.871Z,17.33
2019-05-02T06:23:05.166Z,17.03
2019-05-02T06:28:00.235Z,19.13
2019-05-02T06:32:55.050Z,24.50
2019-05-02T06:37:49.579Z,24.73
2019-05-02T06:42:38.649Z,17.20
2019-05-02T06:47:36.058Z,25.10
2019-05-02T06:52:27.172Z,22.47
2019-05-02T06:57:23.610Z,22.50
2019-05-02T07:02:12.223Z,20.53
2019-05-02T07:07:05.916Z,21.57
2019-05-02T07:12:01.495Z,22.83
2019-05-02T07:16:57.436Z,22.67
2019-05-02T07:21:53.220Z,24.47
2019-05-02T07:26:44.034Z,23.00
2019-05-02T07:31:37.338Z,25.17
2019-05-02T07:36:31.174Z,22.77
2019-05-02T07:41:28.576Z,20.07
2019-05-02T07:46:21.097Z,23.27
2019-05-02T07:51:11.321Z,28.00
2019-05-02T07:56:04.676Z,23.60
2019-05-02T08:00:58.593Z,26.97
2019-05-02T08:05:54.442Z,25.73
2019-05-02T08:10:45.813Z,23.47
2019-05-02T08:15:39.134Z,25.87
2019-05-02T08:20:32.531Z,23.00
2019-05-02T08:25:25.821Z,27.23
2019-05-02T08:30:24.574Z,28.03
2019-05-02T08:35:45.641Z,26.93
2019-05-02T08:40:42.435Z,26.60
2019-05-02T08:45:33.166Z,27.87
2019-05-02T08:50:27.209Z,27.53
2019-05-02T08:55:19.292Z,28.67
2019-05-02T09:00:13.060Z,24.40
2019-05-02T09:05:06.413Z,27.00
2019-05-02T09:10:00.207Z,27.10
2019-05-02T09:14:53.126Z,22.07
2019-05-02T09:19:59.524Z,21.77
2019-05-02T09:24:43.026Z,19.70
2019-05-02T09:29:37.386Z,24.33
2019-05-02T09:34:27.036Z,21.60
2019-05-02T09:39:22.510Z,24.43
2019-05-02T09:44:18.568Z,22.90
2019-05-02T09:49:13.407Z,20.87
2019-05-02T09:54:02.631Z,22.47
2019-05-02T09:58:55.386Z,20.50
2019-05-02T10:03:47.586Z,21.13
2019-05-02T10:08:43.539Z,22.73
2019-05-02T10:13:34.222Z,22.55
2019-05-02T10:18:30.241Z,24.20
2019-05-02T10:23:23.224Z,21.33
2019-05-02T10:28:14.479Z,20.73
2019-05-02T10:33:07.787Z,19.60
2019-05-02T10:38:02.522Z,24.87
2019-05-02T10:42:54.550Z,21.70
2019-05-02T10:47:48.261Z,21.90
2019-05-02T10:52:42.528Z,22.33
2019-05-02T10:57:35.365Z,21.90
2019-05-02T11:02:53.674Z,20.20
2019-05-02T11:07:47.417Z,22.43
2019-05-02T11:13:03.284Z,15.90
2019-05-02T11:17:56.796Z,18.53
2019-05-02T11:22:52.630Z,17.77
2019-05-02T11:27:43.558Z,18.00
2019-05-02T11:32:36.905Z,14.97
2019-05-02T11:37:32.706Z,18.87
2019-05-02T11:42:27.181Z,16.70
2019-05-02T11:47:21.821Z,13.83
2019-05-02T11:52:11.875Z,19.47
2019-05-02T11:57:04.191Z,16.47
2019-05-02T12:02:03.843Z,18.40
2019-05-02T12:07:01.567Z,17.87
2019-05-02T12:11:56.418Z,21.27
2019-05-02T12:16:44.984Z,21.47
2019-05-02T12:21:39.317Z,18.77
2019-05-02T12:26:32.526Z,20.83
2019-05-02T12:31:25.937Z,20.80
2019-05-02T12:36:19.273Z,18.97
2019-05-02T12:41:20.318Z,23.37
2019-05-02T12:46:06.181Z,21.70
2019-05-02T12:50:59.606Z,34.13
2019-05-02T12:55:53.318Z,30.43
2019-05-02T13:00:46.673Z,14.47
2019-05-02T13:05:39.997Z,10.93
2019-05-02T13:10:42.293Z,7.17
2019-05-02T13:15:34.185Z,5.77
2019-05-02T13:20:29.410Z,5.33
2019-05-02T13:25:22.491Z,3.90
2019-05-02T13:30:24.331Z,6.70
2019-05-02T13:35:27.878Z,4.63
2019-05-02T13:40:27.558Z,4.33
2019-05-02T13:45:43.206Z,4.93
2019-05-02T13:50:36.676Z,5.37
2019-05-02T13:55:32.785Z,4.97
2019-05-02T14:00:34.778Z,4.07
2019-05-02T14:05:28.095Z,3.80
2019-05-02T14:10:32.198Z,4.43
2019-05-02T14:15:25.353Z,4.10
2019-05-02T14:20:18.903Z,7.57
2019-05-02T14:25:12.381Z,6.10
2019-05-02T14:30:06.273Z,5.00
2019-05-02T14:35:04.909Z,3.53
2019-05-02T14:40:04.849Z,5.50
2019-05-02T14:45:08.959Z,4.10
2019-05-02T14:49:52.234Z,4.73
2019-05-02T14:54:47.857Z,5.67
2019-05-02T14:59:38.711Z,4.00
2019-05-02T15:04:32.247Z,4.83
2019-05-02T15:09:26.994Z,4.07
2019-05-02T15:14:20.774Z,4.37
2019-05-02T15:19:12.599Z,6.37
2019-05-02T15:24:05.498Z,4.63
2019-05-02T15:28:58.983Z,5.23
2019-05-02T15:34:01.580Z,3.90
2019-05-02T15:38:52.724Z,5.43
2019-05-02T15:43:49.059Z,4.77
2019-05-02T15:48:38.313Z,4.43
2019-05-02T15:53:52.489Z,4.63
2019-05-02T15:58:42.572Z,2.70
2019-05-02T16:03:48.561Z,4.43
2019-05-02T16:08:48.013Z,3.70
2019-05-02T16:13:42.410Z,7.20
2019-05-02T16:18:36.100Z,5.20
2019-05-02T16:23:32.843Z,4.97
2019-05-02T16:28:21.668Z,6.47
2019-05-02T16:33:19.679Z,4.40
2019-05-02T16:38:08.676Z,6.50
2019-05-02T16:43:02.822Z,8.23
2019-05-02T16:48:00.504Z,5.77
2019-05-02T16:52:49.141Z,8.30
2019-05-02T16:57:42.500Z,5.57
2019-05-02T17:02:37.965Z,6.20
2019-05-02T17:07:39.482Z,6.77
2019-05-02T17:12:31.838Z,6.93
2019-05-02T17:17:26.560Z,6.07
2019-05-02T17:22:21.954Z,7.17
2019-05-02T17:27:12.991Z,4.60
2019-05-02T17:32:04.335Z,4.37
2019-05-02T17:36:59.283Z,5.70
2019-05-02T17:41:52.397Z,5.00
2019-05-02T17:46:44.302Z,4.43
2019-05-02T17:52:11.238Z,6.83
2019-05-02T17:57:03.149Z,5.57
2019-05-02T18:01:56.817Z,4.80
2019-05-02T18:06:53.674Z,8.97
2019-05-02T18:11:44.362Z,6.17
2019-05-02T18:16:39.390Z,5.53
2019-05-02T18:21:32.374Z,6.00
2019-05-02T18:26:25.137Z,7.03
2019-05-02T18:31:18.526Z,7.07
2019-05-02T18:36:12.205Z,8.60
2019-05-02T18:41:06.592Z,4.43
2019-05-02T18:46:05.994Z,6.07
2019-05-02T18:50:52.767Z,5.43
2019-05-02T18:55:45.652Z,3.53
2019-05-02T19:00:39.630Z,5.83
2019-05-02T19:05:32.590Z,5.67
2019-05-02T19:10:26.122Z,6.07
2019-05-02T19:15:21.508Z,5.50
2019-05-02T19:20:32.586Z,6.30
2019-05-02T19:25:24.194Z,7.87
2019-05-02T19:30:18.883Z,8.17
2019-05-02T19:35:11.792Z,7.73
2019-05-02T19:40:05.155Z,4.30
2019-05-02T19:45:03.722Z,8.90
2019-05-02T19:49:54.383Z,7.40
2019-05-02T19:54:45.842Z,6.63
2019-05-02T19:59:39.574Z,12.90
2019-05-02T20:04:32.949Z,9.80
2019-05-02T20:09:26.645Z,5.77
2019-05-02T20:14:21.682Z,8.27
2019-05-02T20:19:17.312Z,6.77
2019-05-02T20:24:09.169Z,6.80
2019-05-02T20:29:01.996Z,5.73
2019-05-02T20:33:53.860Z,7.53
2019-05-02T20:38:47.588Z,8.00
2019-05-02T20:43:42.909Z,8.97
2019-05-02T20:48:34.335Z,5.80
2019-05-02T20:53:31.121Z,6.73
2019-05-02T20:58:21.998Z,6.73
2019-05-02T21:03:14.380Z,3.60
2019-05-02T21:08:26.067Z,5.10
2019-05-02T21:13:19.382Z,6.67
2019-05-02T21:18:12.703Z,6.50
2019-05-02T21:23:06.026Z,8.23
2019-05-02T21:27:59.565Z,7.10
2019-05-02T21:32:52.893Z,7.47
2019-05-02T21:37:46.235Z,8.80
2019-05-02T21:42:39.558Z,5.40
2019-05-02T21:47:32.993Z,5.40
2019-05-02T21:52:54.774Z,6.07
2019-05-02T21:57:48.317Z,10.30
2019-05-02T22:02:41.628Z,7.87
2019-05-02T22:07:35.085Z,6.63
2019-05-02T22:12:28.437Z,7.67
2019-05-02T22:17:21.784Z,11.67
2019-05-02T22:22:15.212Z,9.67
2019-05-02T22:27:08.631Z,9.83
2019-05-02T22:32:02.997Z,4.77
2019-05-02T22:36:55.589Z,5.30
2019-05-02T22:41:49.057Z,6.33
2019-05-02T22:46:45.651Z,7.73
2019-05-02T22:51:39.490Z,5.20
2019-05-02T22:56:33.069Z,4.87
2019-05-02T23:01:26.549Z,5.43
2019-05-02T23:06:20.263Z,7.57
2019-05-02T23:11:13.924Z,7.17
2019-05-02T23:16:07.327Z,7.27
2019-05-02T23:21:02.154Z,8.00
2019-05-02T23:26:00.696Z,7.17
2019-05-02T23:30:54.187Z,4.10
2019-05-02T23:35:47.490Z,7.63
2019-05-02T23:40:42.087Z,9.07
2019-05-02T23:45:34.320Z,6.47
2019-05-02T23:50:27.715Z,5.23
2019-05-02T23:55:22.786Z,7.73
